Terminal Aerodrome Forecast
Issued by NWS

Home | Current Version | Previous Version | Text Only | Print | Product List | Glossary On
Versions: 1 2 3 4 5 6 7 8 9 10 11 12 13 14 15 16 17 18 19 20 21 22 23 24 25 26 27 28 29 30 31 32 33 34
738
FTUS46 KLOX 041323 AAA
TAFLAX
TAF AMD
KLAX 041323Z 0413/0518 VRB03KT 4SM BR OVC008
     FM041700 24006KT P6SM OVC012
     FM042100 26012KT P6SM OVC020
     FM050400 25007KT P6SM OVC025
     FM051100 VRB04KT P6SM OVC025
     FM051600 24008KT P6SM OVC025=

USA.gov is the U.S. government's official web portal to all federal, state and local government web resources and services.